Time;durP1;ratioP1;P1;durP2;ratioP2;P2;SDS_P1;SDS_P2;PMS_P1;PMS_P2;Temp;Humidity;BMP_temperature;BMP_pressure;BME280_temperature;BME280_humidity;BME280_pressure;Samples;Min_cycle;Max_cycle;Signal;HPM_P1;HPM_P2
2022/03/28 00:01:52;;;;;;;13.70;4.10;;;6.10;99.90;;;;;;4997022;28;20068;-69
2022/03/28 00:04:18;;;;;;;19.20;4.40;;;6.10;99.90;;;;;;5001708;28;20082;-69
2022/03/28 00:06:43;;;;;;;11.52;3.92;;;6.00;99.90;;;;;;5008400;28;20059;-69
2022/03/28 00:09:09;;;;;;;19.77;4.97;;;5.90;99.90;;;;;;5028444;28;20042;-69
2022/03/28 00:11:35;;;;;;;9.02;4.50;;;5.90;99.90;;;;;;4982398;28;20244;-69
2022/03/28 00:14:01;;;;;;;13.00;4.70;;;5.90;99.90;;;;;;4995892;28;20101;-69
2022/03/28 00:16:27;;;;;;;23.30;5.05;;;5.90;99.90;;;;;;4996841;28;20542;-69
2022/03/28 00:18:53;;;;;;;11.32;4.70;;;5.90;99.90;;;;;;4997691;28;20135;-69
2022/03/28 00:21:19;;;;;;;10.52;3.97;;;5.90;99.90;;;;;;5024750;28;20125;-69
2022/03/28 00:23:46;;;;;;;11.63;3.95;;;5.90;99.90;;;;;;4994033;28;20088;-69
2022/03/28 00:26:12;;;;;;;15.23;4.10;;;5.90;99.90;;;;;;4997606;28;20041;-69
2022/03/28 00:28:38;;;;;;;6.22;2.85;;;5.90;99.90;;;;;;4998282;28;20397;-69
2022/03/28 00:31:04;;;;;;;10.55;3.85;;;5.90;99.90;;;;;;4993522;28;20490;-69
2022/03/28 00:33:30;;;;;;;6.28;3.53;;;5.90;99.90;;;;;;4979970;28;20057;-69
2022/03/28 00:35:56;;;;;;;12.10;3.83;;;5.80;99.90;;;;;;4996139;28;20387;-69
2022/03/28 00:38:22;;;;;;;8.65;3.92;;;5.90;99.90;;;;;;5032397;28;20404;-69
2022/03/28 00:40:48;;;;;;;8.23;3.90;;;5.90;99.90;;;;;;5027074;28;20053;-69
2022/03/28 00:43:14;;;;;;;14.32;5.03;;;5.90;99.90;;;;;;4996388;28;20035;-69
2022/03/28 00:45:41;;;;;;;9.05;4.50;;;6.00;99.90;;;;;;4995746;28;20035;-69
2022/03/28 00:48:09;;;;;;;14.40;4.35;;;5.90;99.90;;;;;;4997419;28;20441;-69
2022/03/28 00:50:35;;;;;;;13.13;4.63;;;5.90;99.90;;;;;;5011925;28;20050;-69
2022/03/28 00:53:04;;;;;;;14.77;4.93;;;5.80;99.90;;;;;;4996588;28;20049;-69
2022/03/28 00:55:30;;;;;;;12.43;4.45;;;5.80;99.90;;;;;;4997708;28;20056;-69
2022/03/28 00:57:56;;;;;;;11.93;4.03;;;5.90;99.90;;;;;;4995604;28;20041;-69
2022/03/28 01:00:22;;;;;;;19.45;5.38;;;5.90;99.90;;;;;;5027291;28;20121;-69
2022/03/28 01:02:48;;;;;;;19.73;5.35;;;5.80;99.90;;;;;;4995997;28;20124;-69
2022/03/28 01:05:14;;;;;;;19.10;5.90;;;5.80;99.90;;;;;;5028306;28;20057;-69
2022/03/28 01:07:41;;;;;;;24.58;6.45;;;5.80;99.90;;;;;;5026365;28;20042;-69
2022/03/28 01:10:11;;;;;;;12.02;5.40;;;5.90;99.90;;;;;;5014125;28;20058;-69
2022/03/28 01:12:42;;;;;;;14.45;5.70;;;5.90;99.90;;;;;;5022087;28;20042;-69
2022/03/28 01:15:09;;;;;;;20.88;6.00;;;5.90;99.90;;;;;;4992653;28;20038;-69
2022/03/28 01:20:22;;;;;;;22.80;6.53;;;6.00;99.90;;;;;;5028258;28;20103;-69
2022/03/28 01:22:47;;;;;;;25.27;7.18;;;5.90;99.90;;;;;;5029105;28;20472;-69
2022/03/28 01:25:19;;;;;;;16.95;7.00;;;5.90;99.90;;;;;;4995086;28;20099;-69
2022/03/28 01:27:46;;;;;;;23.60;6.63;;;6.00;99.90;;;;;;5028853;28;20113;-69
2022/03/28 01:30:12;;;;;;;17.50;6.97;;;6.00;99.90;;;;;;4979818;28;20057;-69
2022/03/28 01:32:38;;;;;;;18.98;6.72;;;5.90;99.90;;;;;;4989853;28;20437;-69
2022/03/28 01:35:04;;;;;;;22.67;7.90;;;5.90;99.90;;;;;;4999068;28;20042;-69
2022/03/28 01:37:29;;;;;;;22.08;7.88;;;6.00;99.90;;;;;;4983213;28;20192;-69
2022/03/28 01:39:55;;;;;;;21.98;9.85;;;6.00;99.90;;;;;;4997994;28;20128;-69
2022/03/28 01:42:21;;;;;;;18.73;8.77;;;6.00;99.90;;;;;;4995133;28;20038;-69
2022/03/28 01:44:52;;;;;;;26.40;8.55;;;5.90;99.90;;;;;;5000223;28;20402;-69
2022/03/28 01:47:18;;;;;;;59.53;10.60;;;5.90;99.90;;;;;;4994137;28;20106;-69
2022/03/28 01:49:44;;;;;;;27.40;10.38;;;5.90;99.90;;;;;;4980149;28;20090;-69
2022/03/28 01:52:10;;;;;;;68.63;12.82;;;5.80;99.90;;;;;;5031946;28;20132;-69
2022/03/28 01:54:35;;;;;;;46.97;11.70;;;5.80;99.90;;;;;;5015623;28;20077;-69
2022/03/28 01:57:01;;;;;;;33.88;11.77;;;5.80;99.90;;;;;;5028203;28;20053;-69
2022/03/28 01:59:27;;;;;;;62.78;13.82;;;5.80;99.90;;;;;;4996596;28;20145;-70
2022/03/28 02:01:52;;;;;;;51.97;13.55;;;5.80;99.90;;;;;;4994584;28;20081;-69
2022/03/28 02:04:18;;;;;;;36.65;12.43;;;5.80;99.90;;;;;;4993277;28;20057;-69
2022/03/28 02:06:44;;;;;;;58.15;14.60;;;5.80;99.90;;;;;;4995629;28;20053;-69
2022/03/28 02:09:10;;;;;;;96.35;17.50;;;5.90;99.90;;;;;;5028808;28;20038;-69
2022/03/28 02:11:35;;;;;;;46.78;14.55;;;5.80;99.90;;;;;;4996948;28;20130;-69
2022/03/28 02:14:01;;;;;;;32.78;14.80;;;5.80;99.90;;;;;;5029123;28;20038;-69
2022/03/28 02:16:27;;;;;;;65.25;13.95;;;5.80;99.90;;;;;;4998697;28;20061;-69
2022/03/28 02:18:52;;;;;;;86.50;17.48;;;5.80;99.90;;;;;;4994948;28;20046;-69
2022/03/28 02:21:18;;;;;;;45.58;16.17;;;5.80;99.90;;;;;;5028185;28;20424;-69
2022/03/28 02:23:44;;;;;;;53.85;15.02;;;5.90;99.90;;;;;;4998157;28;20080;-69
2022/03/28 02:26:13;;;;;;;70.20;17.35;;;5.90;99.90;;;;;;5025566;28;20049;-69
2022/03/28 02:28:39;;;;;;;64.25;16.15;;;5.90;99.90;;;;;;4992991;28;20044;-69
2022/03/28 02:31:05;;;;;;;31.73;15.85;;;5.90;99.90;;;;;;4977622;28;20041;-69
2022/03/28 02:33:30;;;;;;;156.60;20.05;;;5.90;99.90;;;;;;5026204;28;20045;-69
2022/03/28 02:35:56;;;;;;;65.03;17.95;;;5.90;99.90;;;;;;4996723;28;20502;-69
2022/03/28 02:38:22;;;;;;;52.25;17.50;;;5.90;99.90;;;;;;5026094;28;20053;-69
2022/03/28 02:40:48;;;;;;;134.55;19.42;;;5.90;99.90;;;;;;4979976;28;20624;-69
2022/03/28 02:43:13;;;;;;;177.68;20.40;;;5.90;99.90;;;;;;5025661;28;20383;-69
2022/03/28 02:45:39;;;;;;;179.43;21.70;;;5.90;99.90;;;;;;4995266;28;20034;-69
2022/03/28 02:48:06;;;;;;;70.68;19.13;;;5.90;99.90;;;;;;4999547;28;20058;-69
2022/03/28 02:50:34;;;;;;;84.55;17.15;;;5.90;99.90;;;;;;4999754;28;20053;-69
2022/03/28 02:53:00;;;;;;;85.57;18.17;;;5.90;99.90;;;;;;5025888;28;20062;-69
2022/03/28 02:55:26;;;;;;;81.95;18.48;;;5.90;99.90;;;;;;4999737;28;20510;-69
2022/03/28 02:57:52;;;;;;;159.15;22.85;;;5.80;99.90;;;;;;5028181;28;20042;-69
2022/03/28 03:00:18;;;;;;;127.60;22.30;;;5.80;99.90;;;;;;4995475;28;20086;-69
2022/03/28 03:02:44;;;;;;;39.70;19.60;;;5.90;99.90;;;;;;4995797;28;20042;-69
2022/03/28 03:05:11;;;;;;;66.13;19.13;;;5.90;99.90;;;;;;5029179;28;20046;-69
2022/03/28 03:07:38;;;;;;;116.30;23.58;;;5.90;99.90;;;;;;5000302;28;20551;-69
2022/03/28 03:10:05;;;;;;;54.42;23.10;;;5.90;99.90;;;;;;5014564;28;20140;-69
2022/03/28 03:12:31;;;;;;;135.70;25.42;;;5.90;99.90;;;;;;4998947;28;20192;-69
2022/03/28 03:14:56;;;;;;;127.72;26.25;;;5.90;99.90;;;;;;4996087;28;20106;-69
2022/03/28 03:17:22;;;;;;;58.35;25.30;;;6.00;99.90;;;;;;5029942;28;20240;-69
2022/03/28 03:19:48;;;;;;;256.48;32.15;;;6.00;99.90;;;;;;5028851;28;20050;-69
2022/03/28 03:22:14;;;;;;;66.95;25.35;;;6.00;99.90;;;;;;5030822;28;20049;-69
2022/03/28 03:24:44;;;;;;;332.55;32.85;;;6.00;99.90;;;;;;5030649;28;20038;-69
2022/03/28 03:27:10;;;;;;;116.10;25.00;;;6.00;99.90;;;;;;5028904;28;20104;-69
2022/03/28 03:29:36;;;;;;;236.90;27.80;;;6.00;99.90;;;;;;5013451;28;20077;-69
2022/03/28 03:32:03;;;;;;;112.57;26.88;;;5.90;99.90;;;;;;5012247;28;20077;-69
2022/03/28 03:34:29;;;;;;;142.73;25.75;;;5.90;99.90;;;;;;5009868;28;20054;-69
2022/03/28 03:36:55;;;;;;;149.23;24.85;;;5.90;99.90;;;;;;4998284;28;20046;-69
2022/03/28 03:39:22;;;;;;;137.35;25.30;;;5.80;99.90;;;;;;5026310;28;20048;-69
2022/03/28 03:41:49;;;;;;;63.45;22.90;;;5.80;99.90;;;;;;4993841;28;20065;-69
2022/03/28 03:44:15;;;;;;;169.93;25.67;;;5.80;99.90;;;;;;5028129;28;20035;-69
2022/03/28 03:46:40;;;;;;;74.50;22.05;;;5.90;99.90;;;;;;4980837;28;20037;-69
2022/03/28 03:49:06;;;;;;;62.28;19.73;;;5.90;99.90;;;;;;4999122;28;20084;-69
2022/03/28 03:51:32;;;;;;;74.55;18.23;;;5.90;99.90;;;;;;4994287;28;20038;-69
2022/03/28 03:53:57;;;;;;;77.03;16.70;;;5.80;99.90;;;;;;4994568;28;20042;-69
2022/03/28 03:56:23;;;;;;;194.75;22.13;;;5.70;99.90;;;;;;5009850;28;20049;-69
2022/03/28 03:58:49;;;;;;;179.85;26.25;;;5.70;99.90;;;;;;4996751;28;20124;-69
2022/03/28 04:01:15;;;;;;;162.68;24.38;;;5.60;99.90;;;;;;4978014;28;20046;-69
2022/03/28 04:03:40;;;;;;;55.15;19.73;;;5.60;99.90;;;;;;4998489;28;20508;-69
2022/03/28 04:06:10;;;;;;;73.63;20.95;;;5.60;99.90;;;;;;4993819;28;20046;-69
2022/03/28 04:08:36;;;;;;;77.35;19.63;;;5.60;99.90;;;;;;5030280;28;20762;-69
2022/03/28 04:11:02;;;;;;;105.10;22.50;;;5.70;99.90;;;;;;5029432;28;20076;-69
2022/03/28 04:13:27;;;;;;;96.82;23.35;;;5.70;99.90;;;;;;4984986;28;20457;-69
2022/03/28 04:15:53;;;;;;;40.83;19.55;;;5.60;99.90;;;;;;4996814;28;20085;-69
2022/03/28 04:18:19;;;;;;;136.25;24.08;;;5.70;99.90;;;;;;5028734;28;20382;-69
2022/03/28 04:20:45;;;;;;;137.98;25.15;;;5.70;99.90;;;;;;4998565;28;20052;-69
2022/03/28 04:23:10;;;;;;;66.22;21.73;;;5.70;99.90;;;;;;4994254;28;20064;-69
2022/03/28 04:25:36;;;;;;;36.28;20.60;;;5.70;99.90;;;;;;5033957;28;20657;-69
2022/03/28 04:28:04;;;;;;;40.60;20.05;;;5.70;99.90;;;;;;4993643;28;20097;-69
2022/03/28 04:30:30;;;;;;;57.38;19.60;;;5.70;99.90;;;;;;5025782;28;20049;-69
2022/03/28 04:32:56;;;;;;;46.30;20.13;;;5.80;99.90;;;;;;4996546;28;20044;-69
2022/03/28 04:35:22;;;;;;;40.63;20.20;;;5.80;99.90;;;;;;4995974;28;20089;-69
2022/03/28 04:37:48;;;;;;;77.60;23.15;;;5.60;99.90;;;;;;5022697;28;20042;-69
2022/03/28 04:40:16;;;;;;;67.68;21.83;;;5.70;99.90;;;;;;5026422;28;20042;-69
2022/03/28 04:42:42;;;;;;;36.95;19.48;;;5.60;99.90;;;;;;4996557;28;20053;-69
2022/03/28 04:45:09;;;;;;;50.75;19.42;;;5.60;99.90;;;;;;4997429;28;20049;-69
2022/03/28 04:47:36;;;;;;;61.08;21.77;;;5.60;99.90;;;;;;4996004;28;20101;-69
2022/03/28 04:50:02;;;;;;;49.03;20.33;;;5.60;99.90;;;;;;4978098;28;20523;-69
2022/03/28 04:52:28;;;;;;;103.32;24.80;;;5.60;99.90;;;;;;5027386;28;20050;-69
2022/03/28 04:54:54;;;;;;;61.70;21.98;;;5.50;99.90;;;;;;5028369;28;20034;-69
2022/03/28 04:57:20;;;;;;;63.70;22.38;;;5.40;99.90;;;;;;5027361;28;20534;-69
2022/03/28 04:59:46;;;;;;;47.97;21.45;;;5.40;99.90;;;;;;4994321;28;20125;-69
2022/03/28 05:02:11;;;;;;;29.63;19.60;;;5.40;99.90;;;;;;5022593;28;20045;-68
2022/03/28 05:04:37;;;;;;;35.42;20.05;;;5.40;99.90;;;;;;5030647;28;20074;-69
2022/03/28 05:07:03;;;;;;;48.38;22.75;;;5.40;99.90;;;;;;4976206;28;20042;-69
2022/03/28 05:09:29;;;;;;;91.00;24.42;;;5.40;99.90;;;;;;5017069;28;20053;-69
2022/03/28 05:11:55;;;;;;;33.25;20.48;;;5.30;99.90;;;;;;5002703;28;20065;-69
2022/03/28 05:14:22;;;;;;;37.20;21.00;;;5.20;99.90;;;;;;5024983;28;20231;-69
2022/03/28 05:16:48;;;;;;;39.15;21.90;;;5.20;99.90;;;;;;4997497;28;20060;-69
2022/03/28 05:19:14;;;;;;;51.53;25.08;;;5.20;99.90;;;;;;4999326;28;20050;-69
2022/03/28 05:21:40;;;;;;;47.13;24.58;;;5.20;99.90;;;;;;5028759;28;20377;-69
2022/03/28 05:24:06;;;;;;;48.80;25.40;;;5.20;99.90;;;;;;4993380;28;20057;-69
2022/03/28 05:26:31;;;;;;;50.30;27.08;;;5.20;99.90;;;;;;4993151;28;20040;-69
2022/03/28 05:28:57;;;;;;;56.90;28.13;;;5.20;99.90;;;;;;5025208;28;20044;-69
2022/03/28 05:31:23;;;;;;;43.25;26.52;;;5.20;99.90;;;;;;5023170;28;20101;-69
2022/03/28 05:33:49;;;;;;;44.10;27.13;;;5.20;99.90;;;;;;4995849;28;20050;-69
2022/03/28 05:36:15;;;;;;;50.00;28.63;;;5.30;99.90;;;;;;5009631;28;20049;-69
2022/03/28 05:38:42;;;;;;;45.50;28.15;;;5.20;99.90;;;;;;4995421;28;20064;-69
2022/03/28 05:41:08;;;;;;;48.47;29.08;;;5.30;99.90;;;;;;5028132;28;20426;-69
2022/03/28 05:43:36;;;;;;;55.55;29.13;;;5.30;99.90;;;;;;4988052;28;20040;-69
2022/03/28 05:46:03;;;;;;;42.92;27.30;;;5.20;99.90;;;;;;4996273;28;20050;-69
2022/03/28 05:48:29;;;;;;;55.22;27.38;;;5.20;99.90;;;;;;4993885;28;20054;-69
2022/03/28 05:50:55;;;;;;;50.83;27.88;;;5.20;99.90;;;;;;4991199;28;20057;-69
2022/03/28 05:53:21;;;;;;;37.55;23.42;;;5.20;99.90;;;;;;4998021;28;20041;-69
2022/03/28 05:55:48;;;;;;;40.90;25.10;;;5.20;99.90;;;;;;5031755;28;20045;-69
2022/03/28 05:58:14;;;;;;;36.55;22.50;;;5.20;99.90;;;;;;5001117;28;20034;-69
2022/03/28 06:00:41;;;;;;;30.70;20.58;;;5.20;99.90;;;;;;4990920;28;20108;-69
2022/03/28 06:03:08;;;;;;;31.88;18.60;;;5.20;99.90;;;;;;4976760;28;20057;-69
2022/03/28 06:05:36;;;;;;;32.22;17.45;;;5.20;99.90;;;;;;5007150;28;20498;-69
2022/03/28 06:08:03;;;;;;;38.83;17.42;;;5.20;99.90;;;;;;5027011;28;20081;-69
2022/03/28 06:10:29;;;;;;;51.70;18.38;;;5.20;99.90;;;;;;5023719;28;20082;-69
2022/03/28 06:12:55;;;;;;;42.75;18.35;;;5.10;99.90;;;;;;5026384;28;20092;-69
2022/03/28 06:15:21;;;;;;;52.65;20.52;;;5.10;99.90;;;;;;5024180;28;20038;-69
2022/03/28 06:17:47;;;;;;;42.75;19.33;;;5.10;99.90;;;;;;4995136;28;20042;-69
2022/03/28 06:20:13;;;;;;;34.25;19.23;;;5.10;99.90;;;;;;5010143;28;20068;-69
2022/03/28 06:22:40;;;;;;;38.60;20.05;;;5.20;99.90;;;;;;5000649;28;20038;-68
2022/03/28 06:25:08;;;;;;;29.85;18.08;;;5.20;99.90;;;;;;5022271;28;20030;-68
2022/03/28 06:27:41;;;;;;;32.85;17.83;;;5.20;99.90;;;;;;4995866;28;20038;-69
2022/03/28 06:30:09;;;;;;;29.70;16.70;;;5.30;99.90;;;;;;5025963;28;20056;-69
2022/03/28 06:32:34;;;;;;;23.52;14.50;;;5.30;99.90;;;;;;4993339;28;20060;-69
2022/03/28 06:35:00;;;;;;;28.48;13.80;;;5.30;99.90;;;;;;4992049;28;20054;-69
2022/03/28 06:37:26;;;;;;;31.50;12.52;;;5.30;99.90;;;;;;4993441;28;20034;-69
2022/03/28 06:39:51;;;;;;;19.70;12.95;;;5.30;99.90;;;;;;5024733;28;20112;-69
2022/03/28 06:42:17;;;;;;;19.55;12.35;;;5.30;99.90;;;;;;4994742;28;20446;-69
2022/03/28 06:44:43;;;;;;;18.38;10.90;;;5.20;99.90;;;;;;4997091;28;20030;-69
2022/03/28 06:47:09;;;;;;;17.75;11.05;;;5.30;99.90;;;;;;4990571;28;20054;-69
2022/03/28 06:49:34;;;;;;;17.02;9.88;;;5.20;99.90;;;;;;5012941;28;21140;-69
2022/03/28 06:52:00;;;;;;;17.02;9.57;;;5.20;99.90;;;;;;4997358;28;20161;-69
2022/03/28 06:54:26;;;;;;;17.08;9.32;;;5.20;99.90;;;;;;4996785;28;20049;-69
2022/03/28 06:56:52;;;;;;;14.38;9.50;;;5.20;99.90;;;;;;4994161;28;20068;-69
2022/03/28 06:59:19;;;;;;;17.15;7.63;;;5.20;99.90;;;;;;4992149;28;20046;-69
2022/03/28 07:01:46;;;;;;;17.90;8.50;;;5.20;99.90;;;;;;4994382;28;20042;-69
2022/03/28 07:04:12;;;;;;;12.68;7.82;;;5.20;99.90;;;;;;4996966;28;20049;-69
2022/03/28 07:06:38;;;;;;;25.73;8.88;;;5.30;99.90;;;;;;5024658;28;20470;-69
2022/03/28 07:09:05;;;;;;;25.90;8.60;;;5.30;99.90;;;;;;4994230;28;20115;-69
2022/03/28 07:11:32;;;;;;;15.70;8.15;;;5.30;99.90;;;;;;5024102;28;20046;-68
2022/03/28 07:13:57;;;;;;;16.45;8.40;;;5.30;99.90;;;;;;4996496;28;20081;-68
2022/03/28 07:16:23;;;;;;;11.57;7.22;;;5.20;99.90;;;;;;4997898;28;20061;-68
2022/03/28 07:18:49;;;;;;;11.50;7.38;;;5.30;99.90;;;;;;4993744;28;20050;-69
2022/03/28 07:21:15;;;;;;;15.32;7.95;;;5.40;99.90;;;;;;4994615;28;21477;-69
2022/03/28 07:23:40;;;;;;;12.32;7.53;;;5.30;99.90;;;;;;4995667;28;20041;-69
2022/03/28 07:26:09;;;;;;;14.82;8.15;;;5.30;99.90;;;;;;4996378;28;20046;-69
2022/03/28 07:28:39;;;;;;;12.05;7.55;;;5.40;99.90;;;;;;4997162;28;20116;-69
2022/03/28 07:31:08;;;;;;;14.20;8.02;;;5.40;99.90;;;;;;5038802;28;20144;-69
2022/03/28 07:33:37;;;;;;;14.43;7.70;;;5.40;99.90;;;;;;5000772;28;20433;-68
2022/03/28 07:36:03;;;;;;;14.52;6.50;;;5.50;99.90;;;;;;5005745;28;20572;-68
2022/03/28 07:38:29;;;;;;;11.38;7.38;;;5.40;99.90;;;;;;4996903;28;20423;-68
2022/03/28 07:40:55;;;;;;;13.73;8.05;;;5.40;99.90;;;;;;5003863;28;20050;-68
2022/03/28 07:43:21;;;;;;;12.15;8.18;;;5.40;99.90;;;;;;5001875;28;20258;-68
2022/03/28 07:45:48;;;;;;;11.20;7.75;;;5.30;99.90;;;;;;5005139;28;20043;-68
2022/03/28 07:48:14;;;;;;;13.05;8.15;;;5.30;99.90;;;;;;4984662;28;20039;-68
2022/03/28 07:50:40;;;;;;;15.70;9.13;;;5.40;99.90;;;;;;5004639;28;20057;-69
2022/03/28 07:53:06;;;;;;;16.92;9.27;;;5.40;99.90;;;;;;5008004;28;20494;-68
2022/03/28 07:55:32;;;;;;;13.52;9.02;;;5.50;99.90;;;;;;5001200;28;20042;-68
2022/03/28 07:58:01;;;;;;;15.20;9.13;;;5.50;99.90;;;;;;5002982;28;20046;-68
2022/03/28 08:00:29;;;;;;;15.98;9.43;;;5.60;99.90;;;;;;4997929;28;20064;-69
2022/03/28 08:02:56;;;;;;;17.45;10.20;;;5.70;99.90;;;;;;4999334;28;20132;-69
2022/03/28 08:05:22;;;;;;;18.63;11.45;;;5.70;99.90;;;;;;5007793;28;20064;-69
2022/03/28 08:07:52;;;;;;;16.58;10.52;;;5.70;99.90;;;;;;5017293;28;20081;-69
2022/03/28 08:10:19;;;;;;;19.63;11.18;;;5.70;99.90;;;;;;5004643;28;20041;-69
2022/03/28 08:12:45;;;;;;;20.90;11.70;;;5.70;99.90;;;;;;5002476;28;20424;-69
2022/03/28 08:15:13;;;;;;;21.95;12.05;;;5.80;99.90;;;;;;4997717;28;20043;-69
2022/03/28 08:17:39;;;;;;;20.30;12.15;;;5.80;99.90;;;;;;5006330;28;20096;-69
2022/03/28 08:20:09;;;;;;;19.33;12.35;;;5.80;99.90;;;;;;5005411;28;20397;-69
2022/03/28 08:22:36;;;;;;;18.42;11.18;;;5.80;99.90;;;;;;5007847;28;20046;-69
2022/03/28 08:25:02;;;;;;;16.73;11.18;;;5.80;99.90;;;;;;5039020;28;20076;-69
2022/03/28 08:27:28;;;;;;;15.55;10.30;;;5.80;99.90;;;;;;5006198;28;20054;-69
2022/03/28 08:29:53;;;;;;;17.70;11.05;;;5.90;99.90;;;;;;5003165;28;20042;-69
2022/03/28 08:32:19;;;;;;;18.40;11.75;;;5.90;99.90;;;;;;5002174;28;20114;-69
2022/03/28 08:34:48;;;;;;;17.40;11.00;;;6.00;99.90;;;;;;5034106;28;20050;-69
2022/03/28 08:37:18;;;;;;;20.50;12.18;;;6.10;99.90;;;;;;5019499;28;20053;-69
2022/03/28 08:39:45;;;;;;;19.77;12.63;;;6.10;99.90;;;;;;5017533;28;20045;-69
2022/03/28 08:42:14;;;;;;;15.82;11.13;;;6.20;99.90;;;;;;5001601;28;20069;-69
2022/03/28 08:44:41;;;;;;;18.02;11.80;;;6.10;99.90;;;;;;5016822;28;20089;-69
2022/03/28 08:47:09;;;;;;;19.48;11.77;;;6.20;99.90;;;;;;5002802;28;20560;-69
2022/03/28 08:49:38;;;;;;;17.05;11.15;;;6.30;99.90;;;;;;4998644;28;20093;-69
2022/03/28 08:52:05;;;;;;;19.95;12.80;;;6.20;99.90;;;;;;5030545;28;20114;-69
2022/03/28 08:54:31;;;;;;;20.90;13.20;;;6.20;99.90;;;;;;4997842;28;20578;-69
2022/03/28 08:56:57;;;;;;;23.05;13.20;;;6.20;99.90;;;;;;5029412;28;20129;-68
2022/03/28 08:59:23;;;;;;;26.45;14.50;;;6.20;99.90;;;;;;4998080;28;20039;-68
2022/03/28 09:01:50;;;;;;;25.60;14.57;;;6.20;99.90;;;;;;4991433;28;20058;-69
2022/03/28 09:04:16;;;;;;;26.10;15.27;;;6.30;99.90;;;;;;5026968;28;20058;-69
2022/03/28 09:06:45;;;;;;;24.20;13.30;;;6.30;99.90;;;;;;5038455;28;20100;-66
2022/03/28 09:09:29;;;;;;;24.45;12.57;;;6.40;99.90;;;;;;5005008;28;20030;-66
2022/03/28 09:11:57;;;;;;;22.83;14.38;;;6.60;99.90;;;;;;4998791;28;20049;-65
2022/03/28 09:14:27;;;;;;;18.98;11.60;;;6.60;99.90;;;;;;5006631;28;20117;-65
2022/03/28 09:17:02;;;;;;;18.40;10.73;;;6.60;99.90;;;;;;4995777;28;20379;-65
2022/03/28 09:19:41;;;;;;;16.42;10.35;;;6.70;99.90;;;;;;5000773;28;20049;-66
2022/03/28 09:22:34;;;;;;;14.32;8.40;;;6.80;99.90;;;;;;5000840;28;20081;-65
2022/03/28 09:25:08;;;;;;;14.10;9.25;;;6.90;99.90;;;;;;4996239;28;20092;-69
2022/03/28 09:27:37;;;;;;;13.23;8.57;;;7.00;99.90;;;;;;5031435;28;20050;-69
2022/03/28 09:30:07;;;;;;;16.30;9.93;;;7.00;99.90;;;;;;5002738;28;20099;-69
2022/03/28 09:32:35;;;;;;;15.10;9.63;;;7.00;99.90;;;;;;4999991;28;20068;-69
2022/03/28 09:35:12;;;;;;;14.82;9.23;;;7.00;99.90;;;;;;5002210;28;20139;-69
2022/03/28 09:37:56;;;;;;;15.20;9.32;;;6.90;99.90;;;;;;4994944;28;20042;-69
2022/03/28 09:40:23;;;;;;;;;;;6.90;99.90;;;;;;4994035;28;20096;-69
2022/03/28 09:42:50;;;;;;;13.15;7.78;;;6.90;99.90;;;;;;4994581;28;19918;-69
2022/03/28 09:45:20;;;;;;;11.00;7.60;;;7.00;99.90;;;;;;4996404;28;20057;-69
2022/03/28 09:48:01;;;;;;;15.63;9.32;;;7.10;99.90;;;;;;4988203;28;20589;-69
2022/03/28 09:50:31;;;;;;;14.07;9.15;;;7.10;99.90;;;;;;5024288;28;20050;-69
2022/03/28 09:53:16;;;;;;;12.15;8.50;;;7.20;99.90;;;;;;4994001;28;20057;-69
2022/03/28 09:56:06;;;;;;;11.65;8.13;;;7.20;99.90;;;;;;4998810;28;20120;-69
2022/03/28 09:58:42;;;;;;;12.80;8.77;;;7.40;99.90;;;;;;5026959;28;20069;-69
2022/03/28 10:01:12;;;;;;;10.88;7.88;;;7.50;99.90;;;;;;4997041;28;20161;-69
2022/03/28 10:03:37;;;;;;;9.27;7.00;;;7.70;99.90;;;;;;5000830;28;20041;-69
2022/03/28 10:06:05;;;;;;;9.45;7.43;;;7.80;99.90;;;;;;4994545;28;20460;-69
2022/03/28 10:08:31;;;;;;;10.07;7.05;;;7.90;99.90;;;;;;4996012;28;20046;-69
2022/03/28 10:10:59;;;;;;;9.82;7.38;;;8.00;99.90;;;;;;4994661;28;20153;-69
2022/03/28 10:13:26;;;;;;;11.13;7.90;;;8.20;99.90;;;;;;5028332;28;20054;-70
2022/03/28 10:15:53;;;;;;;8.60;7.57;;;8.30;99.90;;;;;;5003370;28;20045;-69
2022/03/28 10:18:19;;;;;;;8.95;7.40;;;8.30;99.90;;;;;;5002257;28;20078;-69
2022/03/28 10:20:53;;;;;;;12.18;8.27;;;8.30;99.90;;;;;;4982183;28;20054;-69
2022/03/28 10:23:20;;;;;;;8.30;7.05;;;8.50;99.90;;;;;;4997928;28;20058;-69
2022/03/28 10:25:47;;;;;;;8.10;6.82;;;8.60;99.90;;;;;;4998157;28;20113;-69
2022/03/28 10:28:17;;;;;;;11.52;8.00;;;8.80;99.90;;;;;;4999815;28;20405;-69
2022/03/28 10:30:44;;;;;;;9.57;7.82;;;8.90;99.90;;;;;;4999814;28;20045;-69
2022/03/28 10:33:22;;;;;;;9.43;7.68;;;9.00;99.90;;;;;;4997800;28;20529;-69
2022/03/28 10:35:58;;;;;;;11.00;8.15;;;9.00;99.90;;;;;;5032898;28;20094;-69
2022/03/28 10:38:25;;;;;;;11.63;9.02;;;9.00;99.90;;;;;;4997296;28;20042;-69
2022/03/28 10:40:57;;;;;;;10.80;8.55;;;9.00;99.90;;;;;;4999538;28;20093;-69
2022/03/28 10:43:25;;;;;;;10.98;8.68;;;9.00;99.90;;;;;;5031723;28;20136;-68
2022/03/28 10:45:52;;;;;;;10.35;9.20;;;9.00;99.90;;;;;;4995976;28;20042;-69
2022/03/28 10:48:44;;;;;;;12.38;9.13;;;9.10;99.90;;;;;;5026615;28;20053;-68
2022/03/28 10:51:17;;;;;;;13.15;9.00;;;9.20;99.90;;;;;;5004551;28;20061;-69
2022/03/28 10:53:51;;;;;;;14.70;9.90;;;9.30;99.90;;;;;;5030976;28;20082;-70
2022/03/28 10:56:20;;;;;;;15.00;9.52;;;9.40;99.90;;;;;;4994418;28;20047;-70
2022/03/28 10:58:52;;;;;;;13.55;10.45;;;9.40;99.90;;;;;;5029447;28;20135;-69
2022/03/28 11:01:24;;;;;;;14.77;10.55;;;9.50;99.90;;;;;;4996284;28;20132;-70
2022/03/28 11:04:14;;;;;;;12.98;9.38;;;9.40;99.90;;;;;;4997475;28;20046;-70
2022/03/28 11:06:52;;;;;;;15.10;11.20;;;9.50;99.90;;;;;;5035397;28;20042;-68
2022/03/28 11:09:56;;;;;;;12.10;10.23;;;9.80;99.90;;;;;;5030699;28;20121;-69
2022/03/28 11:12:39;;;;;;;15.73;10.38;;;9.90;99.90;;;;;;5003752;28;20324;-69
2022/03/28 11:15:19;;;;;;;15.00;10.98;;;10.10;99.90;;;;;;5004873;28;20038;-68
2022/03/28 11:18:01;;;;;;;14.00;11.38;;;10.30;99.90;;;;;;5008510;28;20125;-69
2022/03/28 11:20:42;;;;;;;12.90;11.40;;;10.90;99.90;;;;;;5001055;28;20502;-69
2022/03/28 11:23:10;;;;;;;13.18;11.48;;;11.30;99.90;;;;;;5000511;28;20030;-69
2022/03/28 11:25:44;;;;;;;13.05;10.98;;;11.60;99.90;;;;;;4990092;28;20050;-69
2022/03/28 11:28:23;;;;;;;16.15;11.63;;;11.50;99.90;;;;;;5003738;28;20081;-69
2022/03/28 11:31:06;;;;;;;14.75;12.38;;;11.60;99.90;;;;;;4998518;28;20057;-69
2022/03/28 11:33:33;;;;;;;18.00;12.70;;;11.60;99.90;;;;;;5004022;28;20034;-69
2022/03/28 11:36:05;;;;;;;13.90;11.88;;;11.40;99.90;;;;;;5001152;28;20062;-69
2022/03/28 11:38:36;;;;;;;13.45;11.70;;;11.50;99.90;;;;;;5007987;28;20087;-69
2022/03/28 11:41:03;;;;;;;16.05;12.13;;;11.60;99.90;;;;;;5000203;28;20470;-69
2022/03/28 11:43:38;;;;;;;15.60;12.60;;;11.70;99.90;;;;;;4999129;28;20050;-69
2022/03/28 11:46:11;;;;;;;;;;;11.60;99.90;;;;;;5006603;28;20053;-68
2022/03/28 11:48:37;;;;;;;12.77;11.48;;;11.40;99.40;;;;;;5003744;28;19932;-68
2022/03/28 11:51:16;;;;;;;15.48;12.80;;;11.40;99.90;;;;;;4994025;28;20102;-68
2022/03/28 11:53:43;;;;;;;15.15;12.38;;;11.40;99.90;;;;;;4997905;28;20077;-68
2022/03/28 11:56:09;;;;;;;15.57;12.82;;;11.50;99.90;;;;;;4998099;28;20230;-69
2022/03/28 11:58:35;;;;;;;15.18;12.77;;;12.10;99.50;;;;;;5000770;28;20124;-69
2022/03/28 12:01:07;;;;;;;14.93;13.32;;;13.00;98.70;;;;;;4997504;28;20042;-69
2022/03/28 12:03:34;;;;;;;15.05;13.43;;;13.90;97.40;;;;;;5003846;28;20034;-69
2022/03/28 12:06:00;;;;;;;16.88;13.82;;;14.70;95.90;;;;;;5005117;28;20046;-69
2022/03/28 12:08:28;;;;;;;14.85;13.35;;;14.90;92.80;;;;;;5001884;28;20504;-69
2022/03/28 12:10:54;;;;;;;15.55;13.77;;;15.50;92.10;;;;;;5002661;28;20135;-69
2022/03/28 12:13:22;;;;;;;17.65;14.10;;;15.60;90.00;;;;;;5034539;28;20105;-70
2022/03/28 12:15:50;;;;;;;15.68;13.75;;;15.50;88.00;;;;;;5002739;28;20577;-69
2022/03/28 12:18:21;;;;;;;15.25;13.65;;;15.80;87.40;;;;;;5003367;28;20046;-70
2022/03/28 12:20:49;;;;;;;15.40;13.90;;;16.30;88.00;;;;;;5001413;28;20350;-70
2022/03/28 12:23:17;;;;;;;14.98;13.48;;;16.70;84.90;;;;;;4998286;28;20512;-70
2022/03/28 12:25:48;;;;;;;15.10;13.55;;;17.00;81.90;;;;;;4993172;28;20272;-70
2022/03/28 12:28:25;;;;;;;14.82;13.43;;;17.30;79.30;;;;;;5000826;28;20060;-70
2022/03/28 12:30:53;;;;;;;15.07;13.57;;;17.60;77.70;;;;;;4998541;28;20042;-70
2022/03/28 12:33:26;;;;;;;15.43;13.80;;;17.50;77.30;;;;;;4997046;28;20141;-70
2022/03/28 12:35:59;;;;;;;15.10;13.52;;;17.50;74.10;;;;;;5003930;28;20530;-70
2022/03/28 12:38:29;;;;;;;14.47;13.13;;;17.50;74.80;;;;;;4997635;28;20070;-69
2022/03/28 12:40:57;;;;;;;15.95;14.27;;;17.80;74.40;;;;;;5037612;28;20050;-70
2022/03/28 12:43:27;;;;;;;14.70;13.23;;;18.00;72.00;;;;;;4991921;28;20054;-70
2022/03/28 12:46:04;;;;;;;15.98;14.27;;;18.30;70.40;;;;;;5005111;28;20051;-70
2022/03/28 12:48:41;;;;;;;14.38;13.07;;;18.30;69.10;;;;;;4993369;28;20054;-70